Time,TemperatureF,DewpointF,PressureIn,WindDirection,WindDirectionDegrees,WindSpeedMPH,WindSpeedGustMPH,Humidity,HourlyPrecipIn,Conditions,Clouds,dailyrainin,SoftwareType,DateUTC
2013-09-18 00:01:00,58.7,55.8,29.91,North,0,0.0,0.0,90,0.00,,,0.00,WUHU216HW,2013-09-18 05:01:00,
2013-09-18 00:06:00,58.7,55.8,29.91,North,0,0.0,0.0,90,0.00,,,0.00,WUHU216HW,2013-09-18 05:06:00,
2013-09-18 00:11:00,58.7,55.8,29.91,North,0,0.0,0.0,90,0.00,,,0.00,WUHU216HW,2013-09-18 05:11:00,
2013-09-18 00:16:00,58.7,55.8,29.91,North,0,0.0,0.0,90,0.00,,,0.00,WUHU216HW,2013-09-18 05:16:00,
2013-09-18 00:21:00,58.7,55.8,29.91,North,0,0.0,0.0,90,0.00,,,0.00,WUHU216HW,2013-09-18 05:21:00,
2013-09-18 00:26:00,58.7,55.8,29.91,North,0,0.0,0.0,90,0.00,,,0.00,WUHU216HW,2013-09-18 05:26:00,
2013-09-18 00:31:00,58.9,56.0,29.90,North,0,0.0,0.0,90,0.00,,,0.00,WUHU216HW,2013-09-18 05:31:00,
2013-09-18 00:36:00,58.9,56.3,29.90,North,0,0.0,0.0,91,0.00,,,0.00,WUHU216HW,2013-09-18 05:36:00,
2013-09-18 00:41:00,58.9,56.0,29.90,North,0,0.0,0.0,90,0.00,,,0.00,WUHU216HW,2013-09-18 05:41:00,
2013-09-18 00:46:00,58.9,56.0,29.90,North,0,0.0,0.0,90,0.00,,,0.00,WUHU216HW,2013-09-18 05:46:00,
2013-09-18 00:51:00,58.9,56.0,29.90,North,0,0.0,0.0,90,0.00,,,0.00,WUHU216HW,2013-09-18 05:51:00,
2013-09-18 00:56:00,59.0,56.2,29.90,North,0,0.0,0.0,90,0.00,,,0.00,WUHU216HW,2013-09-18 05:56:00,
2013-09-18 01:01:00,59.0,56.4,29.90,North,0,0.0,0.0,91,0.00,,,0.00,WUHU216HW,2013-09-18 06:01:00,
2013-09-18 01:06:00,59.0,56.4,29.89,North,0,0.0,0.0,91,0.00,,,0.00,WUHU216HW,2013-09-18 06:06:00,
2013-09-18 01:11:00,59.0,56.4,29.89,North,0,0.0,0.0,91,0.00,,,0.00,WUHU216HW,2013-09-18 06:11:00,
2013-09-18 01:16:00,59.2,56.6,29.89,North,0,0.0,0.0,91,0.00,,,0.00,WUHU216HW,2013-09-18 06:16:00,
2013-09-18 01:21:00,59.2,56.6,29.89,North,0,0.0,0.0,91,0.00,,,0.00,WUHU216HW,2013-09-18 06:21:00,
2013-09-18 01:26:00,59.2,56.6,29.89,North,0,0.0,0.0,91,0.00,,,0.00,WUHU216HW,2013-09-18 06:26:00,
2013-09-18 01:31:00,59.4,56.8,29.88,North,0,0.0,0.0,91,0.00,,,0.00,WUHU216HW,2013-09-18 06:31:00,
2013-09-18 01:36:00,59.4,56.8,29.88,North,0,0.0,0.0,91,0.00,,,0.00,WUHU216HW,2013-09-18 06:36:00,
2013-09-18 01:41:00,59.4,56.8,29.88,North,0,0.0,0.0,91,0.00,,,0.00,WUHU216HW,2013-09-18 06:41:00,
2013-09-18 01:46:00,59.4,56.8,29.88,North,0,0.0,0.0,91,0.00,,,0.00,WUHU216HW,2013-09-18 06:46:00,
2013-09-18 01:51:00,59.4,56.8,29.88,North,0,0.0,0.0,91,0.00,,,0.00,WUHU216HW,2013-09-18 06:51:00,
2013-09-18 01:56:00,59.6,57.0,29.87,North,0,0.0,0.0,91,0.00,,,0.00,WUHU216HW,2013-09-18 06:56:00,
2013-09-18 02:01:00,59.6,57.0,29.87,North,0,0.0,0.0,91,0.00,,,0.00,WUHU216HW,2013-09-18 07:01:00,
2013-09-18 02:06:00,59.6,57.2,29.87,North,0,0.0,0.0,92,0.00,,,0.00,WUHU216HW,2013-09-18 07:06:00,
2013-09-18 02:11:00,59.8,57.2,29.87,North,0,0.0,0.0,91,0.00,,,0.00,WUHU216HW,2013-09-18 07:11:00,
2013-09-18 02:16:00,59.8,57.4,29.87,North,0,0.0,0.0,92,0.00,,,0.00,WUHU216HW,2013-09-18 07:16:00,
2013-09-18 02:21:00,59.8,57.4,29.86,North,0,0.0,0.0,92,0.00,,,0.00,WUHU216HW,2013-09-18 07:21:00,
2013-09-18 02:26:00,59.8,57.4,29.86,North,0,0.0,0.0,92,0.00,,,0.00,WUHU216HW,2013-09-18 07:26:00,
2013-09-18 02:31:00,59.8,57.4,29.86,North,0,0.0,0.0,92,0.00,,,0.00,WUHU216HW,2013-09-18 07:31:00,
2013-09-18 02:36:00,59.9,57.6,29.86,North,0,0.0,0.0,92,0.00,,,0.00,WUHU216HW,2013-09-18 07:36:00,
2013-09-18 02:41:00,59.9,57.3,29.86,North,0,0.0,0.0,91,0.00,,,0.00,WUHU216HW,2013-09-18 07:41:00,
2013-09-18 02:46:00,59.9,57.3,29.86,North,0,0.0,0.0,91,0.00,,,0.00,WUHU216HW,2013-09-18 07:46:00,
2013-09-18 02:51:00,59.9,57.6,29.85,North,0,0.0,0.0,92,0.00,,,0.00,WUHU216HW,2013-09-18 07:51:00,
2013-09-18 02:56:00,59.9,57.6,29.85,North,0,0.0,0.0,92,0.00,,,0.00,WUHU216HW,2013-09-18 07:56:00,
2013-09-18 03:01:00,59.9,57.6,29.85,North,0,0.0,0.0,92,0.00,,,0.00,WUHU216HW,2013-09-18 08:01:00,
2013-09-18 03:06:00,60.1,57.8,29.85,North,0,0.0,0.0,92,0.00,,,0.00,WUHU216HW,2013-09-18 08:06:00,
2013-09-18 03:11:00,60.1,57.8,29.85,North,0,0.0,0.0,92,0.00,,,0.00,WUHU216HW,2013-09-18 08:11:00,
2013-09-18 03:16:00,60.1,57.8,29.84,North,0,0.0,0.0,92,0.00,,,0.00,WUHU216HW,2013-09-18 08:16:00,
2013-09-18 03:21:00,60.1,57.8,29.84,North,0,0.0,0.0,92,0.00,,,0.00,WUHU216HW,2013-09-18 08:21:00,
2013-09-18 03:26:00,60.1,57.8,29.84,North,0,0.0,0.0,92,0.00,,,0.00,WUHU216HW,2013-09-18 08:26:00,
2013-09-18 03:31:00,60.1,57.8,29.84,North,0,0.0,0.0,92,0.00,,,0.00,WUHU216HW,2013-09-18 08:31:00,
2013-09-18 03:36:00,60.3,58.0,29.84,North,0,0.0,0.0,92,0.00,,,0.00,WUHU216HW,2013-09-18 08:36:00,
2013-09-18 03:41:00,60.3,58.0,29.84,North,0,0.0,0.0,92,0.00,,,0.00,WUHU216HW,2013-09-18 08:41:00,
2013-09-18 03:46:00,60.3,58.0,29.84,North,0,0.0,0.0,92,0.00,,,0.00,WUHU216HW,2013-09-18 08:46:00,
2013-09-18 03:51:00,60.3,58.0,29.84,North,0,0.0,0.0,92,0.00,,,0.00,WUHU216HW,2013-09-18 08:51:00,
2013-09-18 03:56:00,60.3,58.0,29.84,North,0,0.0,0.0,92,0.00,,,0.00,WUHU216HW,2013-09-18 08:56:00,
2013-09-18 04:01:00,60.5,58.1,29.84,North,0,0.0,0.0,92,0.00,,,0.00,WUHU216HW,2013-09-18 09:01:00,
2013-09-18 04:06:00,60.5,58.1,29.84,North,0,0.0,0.0,92,0.00,,,0.00,WUHU216HW,2013-09-18 09:06:00,
2013-09-18 04:11:00,60.5,58.1,29.83,North,0,0.0,0.0,92,0.00,,,0.00,WUHU216HW,2013-09-18 09:11:00,
2013-09-18 04:16:00,60.5,58.1,29.83,North,0,0.0,0.0,92,0.00,,,0.00,WUHU216HW,2013-09-18 09:16:00,
2013-09-18 04:21:00,60.7,58.3,29.83,North,0,0.0,0.0,92,0.00,,,0.00,WUHU216HW,2013-09-18 09:21:00,
2013-09-18 04:26:00,60.7,58.3,29.83,North,0,0.0,0.0,92,0.00,,,0.00,WUHU216HW,2013-09-18 09:26:00,
2013-09-18 04:31:00,60.7,58.3,29.82,North,0,0.0,0.0,92,0.00,,,0.00,WUHU216HW,2013-09-18 09:31:00,
2013-09-18 04:36:00,60.8,58.9,29.82,North,0,0.0,0.0,93,0.00,,,0.00,WUHU216HW,2013-09-18 09:36:00,
2013-09-18 04:41:00,60.8,58.9,29.82,North,0,0.0,0.0,93,0.00,,,0.00,WUHU216HW,2013-09-18 09:41:00,
2013-09-18 04:46:00,60.8,58.9,29.82,North,0,0.0,0.0,93,0.00,,,0.00,WUHU216HW,2013-09-18 09:46:00,
2013-09-18 04:51:00,60.8,58.9,29.82,North,0,0.0,0.0,93,0.00,,,0.00,WUHU216HW,2013-09-18 09:51:00,
2013-09-18 04:56:00,60.8,58.9,29.82,North,0,0.0,0.0,93,0.00,,,0.00,WUHU216HW,2013-09-18 09:56:00,
2013-09-18 05:01:00,60.8,58.9,29.81,North,0,0.0,0.0,93,0.00,,,0.00,WUHU216HW,2013-09-18 10:01:00,
2013-09-18 05:06:00,61.0,59.1,29.82,North,0,0.0,0.0,93,0.00,,,0.00,WUHU216HW,2013-09-18 10:06:00,
2013-09-18 05:11:00,61.0,59.1,29.81,North,0,0.0,0.0,93,0.00,,,0.00,WUHU216HW,2013-09-18 10:11:00,
2013-09-18 05:16:00,61.2,59.2,29.81,North,0,0.0,0.0,93,0.00,,,0.00,WUHU216HW,2013-09-18 10:16:00,
2013-09-18 05:21:00,61.2,59.2,29.81,North,0,0.0,0.0,93,0.00,,,0.00,WUHU216HW,2013-09-18 10:21:00,
2013-09-18 05:26:00,61.2,59.2,29.81,North,0,0.0,0.0,93,0.01,,,0.01,WUHU216HW,2013-09-18 10:26:00,
2013-09-18 05:31:00,61.2,59.2,29.80,North,0,0.0,0.0,93,0.02,,,0.02,WUHU216HW,2013-09-18 10:31:00,
2013-09-18 05:36:00,61.2,59.2,29.81,North,0,0.0,0.0,93,0.02,,,0.02,WUHU216HW,2013-09-18 10:36:00,
2013-09-18 05:41:00,61.0,59.1,29.81,North,0,0.0,0.0,93,0.02,,,0.02,WUHU216HW,2013-09-18 10:41:00,
2013-09-18 05:46:00,61.0,59.1,29.81,North,0,0.0,0.0,93,0.02,,,0.02,WUHU216HW,2013-09-18 10:46:00,
2013-09-18 05:51:00,61.2,59.2,29.81,North,0,0.0,0.0,93,0.02,,,0.02,WUHU216HW,2013-09-18 10:51:00,
2013-09-18 05:56:00,61.0,59.1,29.81,North,0,0.0,0.0,93,0.02,,,0.02,WUHU216HW,2013-09-18 10:56:00,
2013-09-18 06:01:00,61.0,59.1,29.80,North,0,0.0,0.0,93,0.02,,,0.02,WUHU216HW,2013-09-18 11:01:00,
2013-09-18 06:06:00,61.2,59.2,29.80,North,0,0.0,0.0,93,0.02,,,0.02,WUHU216HW,2013-09-18 11:06:00,
2013-09-18 06:11:00,61.2,59.2,29.80,North,0,0.0,0.0,93,0.02,,,0.02,WUHU216HW,2013-09-18 11:11:00,
2013-09-18 06:16:00,61.2,59.2,29.80,North,0,0.0,0.0,93,0.02,,,0.02,WUHU216HW,2013-09-18 11:16:00,
2013-09-18 06:21:00,61.2,59.2,29.80,North,0,0.0,0.0,93,0.02,,,0.02,WUHU216HW,2013-09-18 11:21:00,
2013-09-18 06:26:00,61.2,59.2,29.80,North,0,0.0,0.0,93,0.01,,,0.02,WUHU216HW,2013-09-18 11:26:00,
2013-09-18 06:31:00,61.2,59.2,29.80,North,0,0.0,0.0,93,0.00,,,0.02,WUHU216HW,2013-09-18 11:31:00,
2013-09-18 06:36:00,61.2,59.2,29.80,North,0,0.0,0.0,93,0.00,,,0.02,WUHU216HW,2013-09-18 11:36:00,
2013-09-18 06:41:00,61.4,59.4,29.80,North,0,0.0,0.0,93,0.01,,,0.03,WUHU216HW,2013-09-18 11:41:00,
2013-09-18 06:46:00,61.4,59.4,29.79,North,0,0.0,0.0,93,0.01,,,0.03,WUHU216HW,2013-09-18 11:46:00,
2013-09-18 06:51:00,61.4,59.4,29.80,North,0,0.0,0.0,93,0.01,,,0.03,WUHU216HW,2013-09-18 11:51:00,
2013-09-18 06:56:00,61.4,59.4,29.79,North,0,0.0,0.0,93,0.01,,,0.03,WUHU216HW,2013-09-18 11:56:00,
2013-09-18 07:01:00,61.4,59.4,29.80,North,0,0.0,0.0,93,0.01,,,0.03,WUHU216HW,2013-09-18 12:01:00,
2013-09-18 07:06:00,61.6,59.9,29.79,North,0,0.0,0.0,94,0.01,,,0.03,WUHU216HW,2013-09-18 12:06:00,
2013-09-18 07:11:00,61.6,59.9,29.80,North,0,0.0,0.0,94,0.01,,,0.03,WUHU216HW,2013-09-18 12:11:00,
2013-09-18 07:16:00,61.6,59.9,29.80,North,0,0.0,0.0,94,0.01,,,0.03,WUHU216HW,2013-09-18 12:16:00,
2013-09-18 07:21:00,61.6,59.9,29.80,North,0,0.0,0.0,94,0.01,,,0.03,WUHU216HW,2013-09-18 12:21:00,
2013-09-18 07:26:00,61.7,60.0,29.80,North,0,0.0,0.0,94,0.01,,,0.03,WUHU216HW,2013-09-18 12:26:00,
2013-09-18 07:31:00,61.7,60.0,29.80,North,0,0.0,0.0,94,0.01,,,0.03,WUHU216HW,2013-09-18 12:31:00,
2013-09-18 07:36:00,61.9,60.2,29.80,North,0,0.0,0.0,94,0.00,,,0.03,WUHU216HW,2013-09-18 12:36:00,
2013-09-18 07:41:00,61.9,60.2,29.79,North,0,0.0,0.0,94,0.00,,,0.03,WUHU216HW,2013-09-18 12:41:00,
2013-09-18 07:46:00,61.9,60.2,29.79,North,0,0.0,0.0,94,0.00,,,0.03,WUHU216HW,2013-09-18 12:46:00,
2013-09-18 07:51:00,62.1,60.4,29.80,North,0,0.0,0.0,94,0.00,,,0.03,WUHU216HW,2013-09-18 12:51:00,
2013-09-18 07:56:00,62.3,60.6,29.79,North,0,0.0,0.0,94,0.00,,,0.03,WUHU216HW,2013-09-18 12:56:00,
2013-09-18 08:01:00,62.3,60.6,29.80,North,0,0.0,0.0,94,0.01,,,0.05,WUHU216HW,2013-09-18 13:01:00,
2013-09-18 08:06:00,62.3,60.6,29.80,North,0,0.0,0.0,94,0.01,,,0.05,WUHU216HW,2013-09-18 13:06:00,
2013-09-18 08:11:00,62.5,60.8,29.80,North,0,0.0,0.0,94,0.01,,,0.05,WUHU216HW,2013-09-18 13:11:00,
2013-09-18 08:16:00,62.5,60.8,29.80,North,0,0.0,0.0,94,0.01,,,0.05,WUHU216HW,2013-09-18 13:16:00,
2013-09-18 08:21:00,62.6,60.9,29.80,North,0,0.0,0.0,94,0.01,,,0.05,WUHU216HW,2013-09-18 13:21:00,
2013-09-18 08:26:00,62.6,60.7,29.79,North,0,0.0,0.0,93,0.01,,,0.05,WUHU216HW,2013-09-18 13:26:00,
2013-09-18 08:31:00,62.8,60.9,29.79,North,0,0.0,0.0,93,0.01,,,0.05,WUHU216HW,2013-09-18 13:31:00,
2013-09-18 08:36:00,63.0,61.3,29.79,North,0,0.0,0.0,94,0.01,,,0.05,WUHU216HW,2013-09-18 13:36:00,
2013-09-18 08:41:00,63.0,61.3,29.79,North,0,0.0,0.0,94,0.01,,,0.05,WUHU216HW,2013-09-18 13:41:00,
2013-09-18 08:46:00,63.2,61.5,29.79,North,0,0.0,0.0,94,0.01,,,0.05,WUHU216HW,2013-09-18 13:46:00,
2013-09-18 08:52:00,63.4,61.4,29.79,North,0,0.0,0.0,93,0.01,,,0.05,WUHU216HW,2013-09-18 13:52:00,
2013-09-18 08:56:00,63.5,61.6,29.79,North,0,0.0,0.0,93,0.01,,,0.05,WUHU216HW,2013-09-18 13:56:00,
2013-09-18 09:01:00,63.7,61.8,29.79,North,0,0.0,0.0,93,0.00,,,0.05,WUHU216HW,2013-09-18 14:01:00,
2013-09-18 09:07:00,63.7,61.8,29.79,North,0,0.0,0.0,93,0.00,,,0.05,WUHU216HW,2013-09-18 14:07:00,
2013-09-18 09:12:00,64.1,62.1,29.80,North,0,0.0,0.0,93,0.00,,,0.05,WUHU216HW,2013-09-18 14:12:00,
2013-09-18 09:17:00,64.1,62.1,29.80,North,0,0.0,0.0,93,0.00,,,0.05,WUHU216HW,2013-09-18 14:17:00,
2013-09-18 09:22:00,64.3,62.3,29.80,North,0,0.0,0.0,93,0.00,,,0.05,WUHU216HW,2013-09-18 14:22:00,
2013-09-18 09:27:00,64.4,62.5,29.80,North,0,0.0,0.0,93,0.00,,,0.05,WUHU216HW,2013-09-18 14:27:00,
2013-09-18 09:32:00,64.4,62.5,29.80,North,0,0.0,0.0,93,0.00,,,0.05,WUHU216HW,2013-09-18 14:32:00,
2013-09-18 09:37:00,64.6,62.6,29.80,North,0,0.0,0.0,93,0.00,,,0.05,WUHU216HW,2013-09-18 14:37:00,
2013-09-18 09:42:00,64.6,62.6,29.80,North,0,0.0,0.0,93,0.00,,,0.05,WUHU216HW,2013-09-18 14:42:00,
2013-09-18 09:47:00,65.0,62.9,29.80,North,0,0.0,0.0,93,0.00,,,0.05,WUHU216HW,2013-09-18 14:47:00,
2013-09-18 09:52:00,65.0,62.9,29.80,North,0,0.0,0.0,93,0.00,,,0.05,WUHU216HW,2013-09-18 14:52:00,
2013-09-18 09:57:00,65.2,63.1,29.79,North,0,0.0,0.0,93,0.00,,,0.05,WUHU216HW,2013-09-18 14:57:00,
2013-09-18 10:02:00,65.2,63.1,29.79,North,0,0.0,0.0,93,0.00,,,0.05,WUHU216HW,2013-09-18 15:02:00,
2013-09-18 10:07:00,65.2,63.1,29.79,North,0,0.0,0.0,93,0.00,,,0.05,WUHU216HW,2013-09-18 15:07:00,
2013-09-18 10:12:00,65.3,63.3,29.79,North,0,0.0,0.0,93,0.00,,,0.05,WUHU216HW,2013-09-18 15:12:00,
2013-09-18 10:17:00,65.3,63.3,29.79,North,0,0.0,0.0,93,0.00,,,0.05,WUHU216HW,2013-09-18 15:17:00,
2013-09-18 10:22:00,65.5,63.5,29.79,North,0,0.0,0.0,93,0.00,,,0.05,WUHU216HW,2013-09-18 15:22:00,
2013-09-18 10:27:00,65.5,63.5,29.79,North,0,0.0,0.0,93,0.00,,,0.05,WUHU216HW,2013-09-18 15:27:00,
2013-09-18 10:32:00,65.7,63.6,29.79,North,0,0.0,0.0,93,0.00,,,0.05,WUHU216HW,2013-09-18 15:32:00,
2013-09-18 10:37:00,65.9,63.7,29.79,North,0,0.0,0.0,93,0.00,,,0.05,WUHU216HW,2013-09-18 15:37:00,
2013-09-18 10:42:00,65.9,63.7,29.79,North,0,0.0,0.0,93,0.00,,,0.05,WUHU216HW,2013-09-18 15:42:00,
2013-09-18 10:47:00,65.9,63.7,29.79,North,0,0.0,0.0,93,0.00,,,0.05,WUHU216HW,2013-09-18 15:47:00,
2013-09-18 10:52:00,65.9,63.7,29.78,North,0,0.0,0.0,93,0.00,,,0.05,WUHU216HW,2013-09-18 15:52:00,
2013-09-18 10:57:00,65.9,63.7,29.78,North,0,0.0,0.0,93,0.00,,,0.05,WUHU216HW,2013-09-18 15:57:00,
2013-09-18 11:01:00,66.1,63.9,29.78,North,0,0.0,0.0,93,0.00,,,0.05,WUHU216HW,2013-09-18 16:01:00,
2013-09-18 11:06:00,66.2,64.5,29.78,North,0,0.0,0.0,94,0.00,,,0.05,WUHU216HW,2013-09-18 16:06:00,
2013-09-18 11:11:00,66.4,64.6,29.77,North,0,0.0,0.0,94,0.00,,,0.05,WUHU216HW,2013-09-18 16:11:00,
2013-09-18 11:16:00,66.6,64.8,29.77,North,0,0.0,0.0,94,0.00,,,0.05,WUHU216HW,2013-09-18 16:16:00,
2013-09-18 11:21:00,66.8,65.0,29.77,North,0,0.0,0.0,94,0.00,,,0.05,WUHU216HW,2013-09-18 16:21:00,
2013-09-18 11:26:00,67.0,65.2,29.77,North,0,0.0,0.0,94,0.00,,,0.05,WUHU216HW,2013-09-18 16:26:00,
2013-09-18 11:31:00,67.1,65.4,29.77,North,0,0.0,0.0,94,0.00,,,0.05,WUHU216HW,2013-09-18 16:31:00,
2013-09-18 11:36:00,67.3,65.5,29.76,North,0,0.0,0.0,94,0.00,,,0.05,WUHU216HW,2013-09-18 16:36:00,
2013-09-18 11:41:00,67.7,65.9,29.76,North,0,0.0,0.0,94,0.00,,,0.05,WUHU216HW,2013-09-18 16:41:00,
2013-09-18 11:46:00,67.9,66.1,29.76,North,0,0.0,0.0,94,0.00,,,0.05,WUHU216HW,2013-09-18 16:46:00,
2013-09-18 11:51:00,67.9,66.1,29.76,North,0,0.0,0.0,94,0.00,,,0.05,WUHU216HW,2013-09-18 16:51:00,
2013-09-18 11:56:00,68.0,66.3,29.76,North,0,0.0,0.0,94,0.00,,,0.05,WUHU216HW,2013-09-18 16:56:00,
2013-09-18 12:02:00,68.0,66.3,29.76,North,0,0.0,0.0,94,0.00,,,0.05,WUHU216HW,2013-09-18 17:02:00,
2013-09-18 12:06:00,68.0,66.3,29.76,North,0,0.0,0.0,94,0.00,,,0.05,WUHU216HW,2013-09-18 17:06:00,
2013-09-18 12:12:00,68.0,66.3,29.76,North,0,0.0,0.0,94,0.00,,,0.05,WUHU216HW,2013-09-18 17:12:00,
2013-09-18 12:17:00,68.2,66.4,29.75,North,0,0.0,0.0,94,0.00,,,0.05,WUHU216HW,2013-09-18 17:17:00,
2013-09-18 12:22:00,68.4,66.6,29.75,North,0,0.0,0.0,94,0.00,,,0.05,WUHU216HW,2013-09-18 17:22:00,
2013-09-18 12:27:00,68.6,66.8,29.75,North,0,0.0,0.0,94,0.00,,,0.05,WUHU216HW,2013-09-18 17:27:00,
2013-09-18 12:32:00,68.8,67.0,29.75,North,0,0.0,0.0,94,0.00,,,0.05,WUHU216HW,2013-09-18 17:32:00,
2013-09-18 12:37:00,68.9,67.2,29.74,North,0,0.0,0.0,94,0.00,,,0.05,WUHU216HW,2013-09-18 17:37:00,
2013-09-18 12:42:00,69.3,67.5,29.74,North,0,0.0,0.0,94,0.00,,,0.05,WUHU216HW,2013-09-18 17:42:00,
2013-09-18 12:47:00,69.5,67.7,29.74,North,0,0.0,0.0,94,0.00,,,0.05,WUHU216HW,2013-09-18 17:47:00,
2013-09-18 12:52:00,69.5,67.7,29.74,North,0,0.0,0.0,94,0.00,,,0.05,WUHU216HW,2013-09-18 17:52:00,
2013-09-18 12:57:00,69.7,67.9,29.74,North,0,0.0,0.0,94,0.00,,,0.05,WUHU216HW,2013-09-18 17:57:00,
2013-09-18 13:02:00,69.8,68.1,29.74,North,0,0.0,0.0,94,0.00,,,0.05,WUHU216HW,2013-09-18 18:02:00,
2013-09-18 13:07:00,70.0,67.9,29.74,North,0,0.0,0.0,93,0.00,,,0.05,WUHU216HW,2013-09-18 18:07:00,
2013-09-18 13:12:00,70.2,68.0,29.74,North,0,0.0,0.0,93,0.00,,,0.05,WUHU216HW,2013-09-18 18:12:00,
2013-09-18 13:17:00,70.2,68.0,29.74,North,0,0.0,0.0,93,0.00,,,0.05,WUHU216HW,2013-09-18 18:17:00,
2013-09-18 13:22:00,70.6,68.1,29.74,North,0,0.0,0.0,92,0.00,,,0.05,WUHU216HW,2013-09-18 18:22:00,
2013-09-18 13:27:00,70.7,68.0,29.74,North,0,0.0,0.0,91,0.00,,,0.05,WUHU216HW,2013-09-18 18:27:00,
2013-09-18 13:32:00,70.9,68.1,29.73,North,0,0.0,0.0,91,0.00,,,0.05,WUHU216HW,2013-09-18 18:32:00,
2013-09-18 13:37:00,70.9,68.1,29.73,North,0,0.0,0.0,91,0.00,,,0.05,WUHU216HW,2013-09-18 18:37:00,
2013-09-18 13:42:00,71.3,68.2,29.73,North,0,0.0,0.0,90,0.00,,,0.05,WUHU216HW,2013-09-18 18:42:00,
2013-09-18 13:47:00,71.5,68.7,29.73,North,0,0.0,0.0,91,0.00,,,0.05,WUHU216HW,2013-09-18 18:47:00,
2013-09-18 13:52:00,71.6,68.6,29.72,North,0,0.0,0.0,90,0.00,,,0.05,WUHU216HW,2013-09-18 18:52:00,
2013-09-18 13:57:00,71.6,68.6,29.72,North,0,0.0,0.0,90,0.00,,,0.05,WUHU216HW,2013-09-18 18:57:00,
2013-09-18 14:02:00,71.8,68.8,29.72,North,0,0.0,0.0,90,0.00,,,0.05,WUHU216HW,2013-09-18 19:02:00,
2013-09-18 14:07:00,71.8,68.4,29.73,North,0,0.0,0.0,89,0.00,,,0.05,WUHU216HW,2013-09-18 19:07:00,
2013-09-18 14:12:00,72.0,68.6,29.72,North,0,0.0,0.0,89,0.00,,,0.05,WUHU216HW,2013-09-18 19:12:00,
2013-09-18 14:17:00,72.0,68.2,29.72,North,0,0.0,0.0,88,0.00,,,0.05,WUHU216HW,2013-09-18 19:17:00,
2013-09-18 14:22:00,72.0,68.2,29.72,North,0,0.0,0.0,88,0.00,,,0.05,WUHU216HW,2013-09-18 19:22:00,
2013-09-18 14:27:00,72.2,68.4,29.72,North,0,0.0,0.0,88,0.00,,,0.05,WUHU216HW,2013-09-18 19:27:00,
2013-09-18 14:32:00,72.4,68.6,29.72,North,0,0.0,0.0,88,0.00,,,0.05,WUHU216HW,2013-09-18 19:32:00,
2013-09-18 14:37:00,72.4,68.6,29.72,North,0,0.0,0.0,88,0.00,,,0.05,WUHU216HW,2013-09-18 19:37:00,
2013-09-18 14:42:00,72.4,68.6,29.72,North,0,0.0,0.0,88,0.00,,,0.05,WUHU216HW,2013-09-18 19:42:00,
2013-09-18 14:47:00,72.4,68.3,29.71,North,0,0.0,0.0,87,0.00,,,0.05,WUHU216HW,2013-09-18 19:47:00,
2013-09-18 14:52:00,72.4,68.3,29.72,North,0,0.0,0.0,87,0.00,,,0.05,WUHU216HW,2013-09-18 19:52:00,
2013-09-18 14:57:00,72.4,68.0,29.72,North,0,0.0,0.0,86,0.00,,,0.05,WUHU216HW,2013-09-18 19:57:00,
2013-09-18 15:02:00,72.4,68.0,29.71,North,0,0.0,0.0,86,0.00,,,0.05,WUHU216HW,2013-09-18 20:02:00,
2013-09-18 15:07:00,72.4,68.0,29.71,North,0,0.0,0.0,86,0.00,,,0.05,WUHU216HW,2013-09-18 20:07:00,
2013-09-18 15:12:00,72.4,67.6,29.71,North,0,0.0,0.0,85,0.00,,,0.05,WUHU216HW,2013-09-18 20:12:00,
2013-09-18 15:18:00,72.4,67.6,29.71,North,0,0.0,0.0,85,0.00,,,0.05,WUHU216HW,2013-09-18 20:18:00,
2013-09-18 15:23:00,72.4,67.6,29.71,North,0,0.0,0.0,85,0.00,,,0.05,WUHU216HW,2013-09-18 20:23:00,
2013-09-18 15:28:00,72.4,67.6,29.71,North,0,0.0,0.0,85,0.00,,,0.05,WUHU216HW,2013-09-18 20:28:00,
2013-09-18 15:33:00,72.4,67.6,29.71,North,0,0.0,0.0,85,0.00,,,0.05,WUHU216HW,2013-09-18 20:33:00,
2013-09-18 15:38:00,72.4,67.6,29.71,North,0,0.0,0.0,85,0.00,,,0.05,WUHU216HW,2013-09-18 20:38:00,
2013-09-18 15:43:00,72.4,67.2,29.70,North,0,0.0,0.0,84,0.00,,,0.05,WUHU216HW,2013-09-18 20:43:00,
2013-09-18 15:48:00,72.5,67.4,29.71,North,0,0.0,0.0,84,0.00,,,0.05,WUHU216HW,2013-09-18 20:48:00,
2013-09-18 15:53:00,72.5,67.4,29.71,North,0,0.0,0.0,84,0.00,,,0.05,WUHU216HW,2013-09-18 20:53:00,
2013-09-18 15:58:00,72.4,67.2,29.70,North,0,0.0,0.0,84,0.00,,,0.05,WUHU216HW,2013-09-18 20:58:00,
2013-09-18 16:03:00,72.5,67.4,29.70,North,0,0.0,0.0,84,0.00,,,0.05,WUHU216HW,2013-09-18 21:03:00,
2013-09-18 16:08:00,72.7,67.6,29.70,North,0,0.0,0.0,84,0.00,,,0.05,WUHU216HW,2013-09-18 21:08:00,
2013-09-18 16:13:00,72.7,67.6,29.70,North,0,0.0,0.0,84,0.00,,,0.05,WUHU216HW,2013-09-18 21:13:00,
2013-09-18 16:18:00,72.9,67.8,29.70,North,0,0.0,0.0,84,0.00,,,0.05,WUHU216HW,2013-09-18 21:18:00,
2013-09-18 16:23:00,72.9,68.1,29.70,North,0,0.0,0.0,85,0.00,,,0.05,WUHU216HW,2013-09-18 21:23:00,
2013-09-18 16:28:00,73.1,68.3,29.70,North,0,0.0,0.0,85,0.00,,,0.05,WUHU216HW,2013-09-18 21:28:00,
2013-09-18 16:33:00,73.1,68.3,29.70,North,0,0.0,0.0,85,0.00,,,0.05,WUHU216HW,2013-09-18 21:33:00,
2013-09-18 16:38:00,73.3,68.5,29.70,North,0,0.0,0.0,85,0.00,,,0.05,WUHU216HW,2013-09-18 21:38:00,
2013-09-18 16:43:00,73.3,68.5,29.70,North,0,0.0,0.0,85,0.00,,,0.05,WUHU216HW,2013-09-18 21:43:00,
2013-09-18 16:48:00,73.3,68.1,29.70,North,0,0.0,0.0,84,0.00,,,0.05,WUHU216HW,2013-09-18 21:48:00,
2013-09-18 16:53:00,73.3,68.1,29.70,North,0,0.0,0.0,84,0.00,,,0.05,WUHU216HW,2013-09-18 21:53:00,
2013-09-18 16:58:00,73.4,68.7,29.69,North,0,0.0,0.0,85,0.00,,,0.05,WUHU216HW,2013-09-18 21:58:00,
2013-09-18 17:03:00,73.4,68.7,29.69,North,0,0.0,0.0,85,0.00,,,0.05,WUHU216HW,2013-09-18 22:03:00,
2013-09-18 17:09:00,73.6,68.9,29.69,North,0,0.0,0.0,85,0.00,,,0.05,WUHU216HW,2013-09-18 22:09:00,
2013-09-18 17:14:00,73.8,68.7,29.69,North,0,0.0,0.0,84,0.00,,,0.05,WUHU216HW,2013-09-18 22:14:00,
2013-09-18 17:18:00,73.8,68.7,29.69,North,0,0.0,0.0,84,0.00,,,0.05,WUHU216HW,2013-09-18 22:18:00,
2013-09-18 17:23:00,74.0,68.5,29.69,North,0,0.0,0.0,83,0.00,,,0.05,WUHU216HW,2013-09-18 22:23:00,
2013-09-18 17:28:00,73.8,68.7,29.69,North,0,0.0,0.0,84,0.00,,,0.05,WUHU216HW,2013-09-18 22:28:00,
2013-09-18 17:33:00,74.0,68.9,29.69,North,0,0.0,0.0,84,0.00,,,0.05,WUHU216HW,2013-09-18 22:33:00,
2013-09-18 17:39:00,74.2,68.7,29.69,North,0,0.0,0.0,83,0.00,,,0.05,WUHU216HW,2013-09-18 22:39:00,
2013-09-18 17:44:00,74.2,68.7,29.69,North,0,0.0,0.0,83,0.00,,,0.05,WUHU216HW,2013-09-18 22:44:00,
2013-09-18 17:49:00,74.0,68.5,29.69,North,0,0.0,0.0,83,0.00,,,0.05,WUHU216HW,2013-09-18 22:49:00,
2013-09-18 17:54:00,74.0,68.5,29.69,North,0,0.0,0.0,83,0.00,,,0.05,WUHU216HW,2013-09-18 22:54:00,
2013-09-18 17:59:00,73.8,68.3,29.68,North,0,0.0,0.0,83,0.00,,,0.05,WUHU216HW,2013-09-18 22:59:00,
2013-09-18 18:04:00,73.6,68.1,29.68,North,0,0.0,0.0,83,0.00,,,0.05,WUHU216HW,2013-09-18 23:04:00,
2013-09-18 18:09:00,73.4,68.3,29.68,North,0,0.0,0.0,84,0.00,,,0.05,WUHU216HW,2013-09-18 23:09:00,
2013-09-18 18:14:00,73.4,68.3,29.68,North,0,0.0,0.0,84,0.00,,,0.05,WUHU216HW,2013-09-18 23:14:00,
2013-09-18 18:19:00,73.1,68.3,29.68,North,0,0.0,0.0,85,0.00,,,0.05,WUHU216HW,2013-09-18 23:19:00,
2013-09-18 18:24:00,73.1,68.3,29.68,North,0,0.0,0.0,85,0.00,,,0.05,WUHU216HW,2013-09-18 23:24:00,
2013-09-18 18:29:00,72.9,67.8,29.68,North,0,0.0,0.0,84,0.00,,,0.05,WUHU216HW,2013-09-18 23:29:00,
2013-09-18 18:34:00,72.7,67.6,29.68,North,0,0.0,0.0,84,0.00,,,0.05,WUHU216HW,2013-09-18 23:34:00,
2013-09-18 18:39:00,72.5,67.4,29.68,North,0,0.0,0.0,84,0.00,,,0.05,WUHU216HW,2013-09-18 23:39:00,
2013-09-18 18:44:00,72.4,67.2,29.68,North,0,0.0,0.0,84,0.00,,,0.05,WUHU216HW,2013-09-18 23:44:00,
2013-09-18 18:49:00,72.0,67.2,29.68,North,0,0.0,0.0,85,0.00,,,0.05,WUHU216HW,2013-09-18 23:49:00,
2013-09-18 18:54:00,71.8,67.1,29.68,North,0,0.0,0.0,85,0.00,,,0.05,WUHU216HW,2013-09-18 23:54:00,
2013-09-18 18:59:00,71.6,67.2,29.68,North,0,0.0,0.0,86,0.00,,,0.05,WUHU216HW,2013-09-18 23:59:00,
2013-09-18 19:04:00,71.5,67.1,29.68,North,0,0.0,0.0,86,0.00,,,0.05,WUHU216HW,2013-09-19 00:04:00,
2013-09-18 19:09:00,71.3,66.9,29.68,North,0,0.0,0.0,86,0.00,,,0.05,WUHU216HW,2013-09-19 00:09:00,
2013-09-18 19:14:00,71.1,67.1,29.68,North,0,0.0,0.0,87,0.00,,,0.05,WUHU216HW,2013-09-19 00:14:00,
2013-09-18 19:19:00,70.9,66.9,29.68,North,0,0.0,0.0,87,0.00,,,0.05,WUHU216HW,2013-09-19 00:19:00,
2013-09-18 19:24:00,70.7,66.7,29.68,North,0,0.0,0.0,87,0.00,,,0.05,WUHU216HW,2013-09-19 00:24:00,
2013-09-18 19:29:00,70.6,66.8,29.68,North,0,0.0,0.0,88,0.00,,,0.05,WUHU216HW,2013-09-19 00:29:00,
2013-09-18 19:34:00,70.4,66.6,29.68,North,0,0.0,0.0,88,0.00,,,0.05,WUHU216HW,2013-09-19 00:34:00,
2013-09-18 19:39:00,70.2,66.4,29.68,North,0,0.0,0.0,88,0.00,,,0.05,WUHU216HW,2013-09-19 00:39:00,
2013-09-18 19:44:00,70.2,66.4,29.68,North,0,0.0,0.0,88,0.00,,,0.05,WUHU216HW,2013-09-19 00:44:00,
2013-09-18 19:49:00,70.0,66.6,29.68,North,0,0.0,0.0,89,0.00,,,0.05,WUHU216HW,2013-09-19 00:49:00,
2013-09-18 19:54:00,70.0,66.6,29.68,North,0,0.0,0.0,89,0.00,,,0.05,WUHU216HW,2013-09-19 00:54:00,
2013-09-18 19:59:00,69.8,66.4,29.68,North,0,0.0,0.0,89,0.00,,,0.05,WUHU216HW,2013-09-19 00:59:00,
2013-09-18 20:04:00,69.7,66.2,29.68,North,0,0.0,0.0,89,0.00,,,0.05,WUHU216HW,2013-09-19 01:04:00,
2013-09-18 20:09:00,69.7,66.2,29.68,North,0,0.0,0.0,89,0.00,,,0.05,WUHU216HW,2013-09-19 01:09:00,
2013-09-18 20:14:00,69.5,66.1,29.68,North,0,0.0,0.0,89,0.00,,,0.05,WUHU216HW,2013-09-19 01:14:00,
2013-09-18 20:19:00,69.5,66.1,29.68,North,0,0.0,0.0,89,0.00,,,0.05,WUHU216HW,2013-09-19 01:19:00,
2013-09-18 20:24:00,69.3,65.9,29.68,North,0,0.0,0.0,89,0.00,,,0.05,WUHU216HW,2013-09-19 01:24:00,
2013-09-18 20:29:00,69.3,66.2,29.68,North,0,0.0,0.0,90,0.00,,,0.05,WUHU216HW,2013-09-19 01:29:00,
2013-09-18 20:34:00,69.1,66.1,29.68,North,0,0.0,0.0,90,0.00,,,0.05,WUHU216HW,2013-09-19 01:34:00,
2013-09-18 20:39:00,69.1,66.1,29.68,North,0,0.0,0.0,90,0.00,,,0.05,WUHU216HW,2013-09-19 01:39:00,
2013-09-18 20:44:00,68.9,65.9,29.68,North,0,0.0,0.0,90,0.00,,,0.05,WUHU216HW,2013-09-19 01:44:00,
2013-09-18 20:50:00,68.9,66.2,29.68,North,0,0.0,0.0,91,0.00,,,0.05,WUHU216HW,2013-09-19 01:50:00,
2013-09-18 20:55:00,68.9,66.2,29.69,North,0,0.0,0.0,91,0.00,,,0.05,WUHU216HW,2013-09-19 01:55:00,
2013-09-18 21:00:00,68.9,66.2,29.69,North,0,0.0,0.0,91,0.00,,,0.05,WUHU216HW,2013-09-19 02:00:00,
2013-09-18 21:05:00,68.8,66.0,29.69,North,0,0.0,0.0,91,0.00,,,0.05,WUHU216HW,2013-09-19 02:05:00,
2013-09-18 21:10:00,68.8,66.0,29.69,North,0,0.0,0.0,91,0.00,,,0.05,WUHU216HW,2013-09-19 02:10:00,
2013-09-18 21:15:00,68.8,66.0,29.69,North,0,0.0,0.0,91,0.00,,,0.05,WUHU216HW,2013-09-19 02:15:00,
2013-09-18 21:20:00,68.8,66.0,29.69,North,0,0.0,0.0,91,0.00,,,0.05,WUHU216HW,2013-09-19 02:20:00,
2013-09-18 21:25:00,68.6,65.8,29.69,North,0,0.0,0.0,91,0.00,,,0.05,WUHU216HW,2013-09-19 02:25:00,
2013-09-18 21:30:00,68.6,65.8,29.69,North,0,0.0,0.0,91,0.00,,,0.05,WUHU216HW,2013-09-19 02:30:00,
2013-09-18 21:35:00,68.4,66.0,29.69,North,0,0.0,0.0,92,0.00,,,0.05,WUHU216HW,2013-09-19 02:35:00,
2013-09-18 21:40:00,68.4,66.0,29.69,North,0,0.0,0.0,92,0.00,,,0.05,WUHU216HW,2013-09-19 02:40:00,
2013-09-18 21:45:00,68.4,66.0,29.69,North,0,0.0,0.0,92,0.00,,,0.05,WUHU216HW,2013-09-19 02:45:00,
2013-09-18 21:50:00,68.2,65.8,29.69,North,0,0.0,0.0,92,0.00,,,0.05,WUHU216HW,2013-09-19 02:50:00,
2013-09-18 21:55:00,68.2,65.8,29.69,North,0,0.0,0.0,92,0.00,,,0.05,WUHU216HW,2013-09-19 02:55:00,
2013-09-18 22:00:00,68.2,65.8,29.68,North,0,0.0,0.0,92,0.00,,,0.05,WUHU216HW,2013-09-19 03:00:00,
2013-09-18 22:05:00,68.2,65.8,29.68,North,0,0.0,0.0,92,0.00,,,0.05,WUHU216HW,2013-09-19 03:05:00,
2013-09-18 22:10:00,68.2,65.8,29.68,North,0,0.0,0.0,92,0.00,,,0.05,WUHU216HW,2013-09-19 03:10:00,
2013-09-18 22:15:00,68.2,65.8,29.68,North,0,0.0,0.0,92,0.00,,,0.05,WUHU216HW,2013-09-19 03:15:00,
2013-09-18 22:20:00,68.4,66.0,29.68,North,0,0.0,0.0,92,0.00,,,0.05,WUHU216HW,2013-09-19 03:20:00,
2013-09-18 22:25:00,68.4,66.0,29.68,North,0,0.0,0.0,92,0.00,,,0.05,WUHU216HW,2013-09-19 03:25:00,
2013-09-18 22:30:00,68.4,66.2,29.67,North,0,0.0,0.0,93,0.00,,,0.05,WUHU216HW,2013-09-19 03:30:00,
2013-09-18 22:35:00,68.4,66.2,29.68,North,0,0.0,0.0,93,0.00,,,0.05,WUHU216HW,2013-09-19 03:35:00,
2013-09-18 22:40:00,68.6,66.4,29.67,North,0,0.0,0.0,93,0.00,,,0.05,WUHU216HW,2013-09-19 03:40:00,
2013-09-18 22:45:00,68.4,66.2,29.67,North,0,0.0,0.0,93,0.00,,,0.05,WUHU216HW,2013-09-19 03:45:00,
2013-09-18 22:50:00,68.4,66.2,29.67,North,0,0.0,0.0,93,0.00,,,0.05,WUHU216HW,2013-09-19 03:50:00,
2013-09-18 22:55:00,68.6,66.4,29.67,North,0,0.0,0.0,93,0.00,,,0.05,WUHU216HW,2013-09-19 03:55:00,
2013-09-18 23:00:00,68.6,66.4,29.68,North,0,0.0,0.0,93,0.00,,,0.05,WUHU216HW,2013-09-19 04:00:00,
2013-09-18 23:01:00,68.6,66.4,29.68,North,0,0.0,0.0,93,0.00,,,0.05,WUHU216HW,2013-09-19 04:01:00,
2013-09-18 23:02:00,68.6,66.4,29.68,North,0,0.0,0.0,93,0.00,,,0.05,WUHU216HW,2013-09-19 04:02:00,
2013-09-18 23:07:00,68.6,66.4,29.68,North,0,0.0,0.0,93,0.00,,,0.05,WUHU216HW,2013-09-19 04:07:00,
2013-09-18 23:08:00,68.6,66.4,29.68,North,0,0.0,0.0,93,0.00,,,0.05,WUHU216HW,2013-09-19 04:08:00,
2013-09-18 23:13:00,68.8,66.6,29.68,North,0,0.0,0.0,93,0.00,,,0.05,WUHU216HW,2013-09-19 04:13:00,
2013-09-18 23:18:00,68.8,66.6,29.68,North,0,0.0,0.0,93,0.00,,,0.05,WUHU216HW,2013-09-19 04:18:00,
2013-09-18 23:23:00,68.8,66.6,29.68,North,0,0.0,0.0,93,0.00,,,0.05,WUHU216HW,2013-09-19 04:23:00,
2013-09-18 23:28:00,68.8,66.6,29.68,North,0,0.0,0.0,93,0.00,,,0.05,WUHU216HW,2013-09-19 04:28:00,
2013-09-18 23:33:00,68.8,66.6,29.68,North,0,0.0,0.0,93,0.00,,,0.05,WUHU216HW,2013-09-19 04:33:00,
2013-09-18 23:38:00,68.8,66.6,29.68,North,0,0.0,0.0,93,0.00,,,0.05,WUHU216HW,2013-09-19 04:38:00,
2013-09-18 23:43:00,68.8,66.6,29.68,North,0,0.0,0.0,93,0.00,,,0.05,WUHU216HW,2013-09-19 04:43:00,
2013-09-18 23:48:00,68.6,66.4,29.68,North,0,0.0,0.0,93,0.00,,,0.05,WUHU216HW,2013-09-19 04:48:00,
2013-09-18 23:53:00,68.6,66.4,29.67,North,0,0.0,0.0,93,0.00,,,0.05,WUHU216HW,2013-09-19 04:53:00,
2013-09-18 23:58:00,68.6,66.4,29.67,North,0,0.0,0.0,93,0.00,,,0.05,WUHU216HW,2013-09-19 04:58:00,